createdAt,value
2018-02-09T00:00:22.705Z,-1.00
2018-02-09T00:02:50.219Z,-1.00
2018-02-09T00:05:17.736Z,-1.00
2018-02-09T00:07:46.024Z,-1.00
2018-02-09T00:10:14.322Z,-1.00
2018-02-09T00:12:41.837Z,-1.00
2018-02-09T00:15:10.133Z,-0.90
2018-02-09T00:17:38.410Z,-0.90
2018-02-09T00:20:06.701Z,-0.90
2018-02-09T00:22:46.066Z,-1.00
2018-02-09T00:25:13.580Z,-1.00
2018-02-09T00:27:41.848Z,-0.90
2018-02-09T00:30:10.128Z,-0.90
2018-02-09T00:32:38.401Z,-0.90
2018-02-09T00:35:06.684Z,-0.90
2018-02-09T00:37:34.958Z,-0.90
2018-02-09T00:40:03.267Z,-1.00
2018-02-09T00:42:30.764Z,-1.00
2018-02-09T00:44:58.267Z,-0.90
2018-02-09T00:47:25.795Z,-0.90
2018-02-09T00:49:54.091Z,-0.90
2018-02-09T00:52:22.381Z,-1.00
2018-02-09T00:54:49.890Z,-1.00
2018-02-09T00:57:17.405Z,-1.00
2018-02-09T00:59:44.937Z,-0.90
2018-02-09T01:02:13.218Z,-1.00
2018-02-09T01:04:41.494Z,-1.00
2018-02-09T01:07:09.836Z,-1.00
2018-02-09T01:09:37.330Z,-1.00
2018-02-09T01:12:05.635Z,-1.00
2018-02-09T01:14:33.140Z,-1.00
2018-02-09T01:17:00.666Z,-1.00
2018-02-09T01:19:28.155Z,-1.00
2018-02-09T01:21:55.678Z,-1.00
2018-02-09T01:24:23.194Z,-1.00
2018-02-09T01:26:51.501Z,-1.00
2018-02-09T01:29:19.001Z,-1.00
2018-02-09T01:31:46.520Z,-0.90
2018-02-09T01:34:14.059Z,-0.90
2018-02-09T01:36:41.569Z,-1.00
2018-02-09T01:39:09.098Z,-1.00
2018-02-09T01:41:36.606Z,-1.00
2018-02-09T01:44:04.919Z,-1.00
2018-02-09T01:46:32.439Z,-1.10
2018-02-09T01:48:59.970Z,-1.10
2018-02-09T01:51:27.499Z,-1.10
2018-02-09T01:53:55.013Z,-1.10
2018-02-09T01:56:22.555Z,-1.10
2018-02-09T01:58:50.073Z,-1.10
2018-02-09T02:01:17.597Z,-1.10
2018-02-09T02:03:45.092Z,-1.00
2018-02-09T02:06:12.657Z,-1.00
2018-02-09T02:08:40.165Z,-1.00
2018-02-09T02:11:07.703Z,-0.90
2018-02-09T02:13:35.224Z,-0.90
2018-02-09T02:16:02.772Z,-0.90
2018-02-09T02:18:31.037Z,-0.90
2018-02-09T02:20:59.318Z,-0.90
2018-02-09T02:23:27.616Z,-0.90
2018-02-09T02:25:55.116Z,-0.90
2018-02-09T02:28:22.650Z,-0.90
2018-02-09T02:30:50.167Z,-1.00
2018-02-09T02:33:19.468Z,-0.90
2018-02-09T02:35:47.736Z,-0.90
2018-02-09T02:38:16.042Z,-0.90
2018-02-09T02:40:43.572Z,-0.90
2018-02-09T02:43:11.855Z,-0.90
2018-02-09T02:45:40.167Z,-1.00
2018-02-09T02:48:07.679Z,-1.00
2018-02-09T02:50:35.206Z,-1.00
2018-02-09T02:53:02.709Z,-1.00
2018-02-09T02:55:30.255Z,-1.00
2018-02-09T02:57:57.780Z,-1.00
2018-02-09T03:00:25.292Z,-1.00
2018-02-09T03:02:53.581Z,-1.00
2018-02-09T03:05:21.125Z,-1.00
2018-02-09T03:07:49.403Z,-1.00
2018-02-09T03:10:17.681Z,-1.00
2018-02-09T03:12:45.960Z,-1.10
2018-02-09T03:15:14.233Z,-1.10
2018-02-09T03:17:42.521Z,-1.10
2018-02-09T03:20:10.033Z,-1.10
2018-02-09T03:22:37.566Z,-1.10
2018-02-09T03:25:05.069Z,-1.10
2018-02-09T03:27:33.371Z,-1.10
2018-02-09T03:30:00.897Z,-1.10
2018-02-09T03:32:28.408Z,-1.10
2018-02-09T03:34:55.933Z,-1.10
2018-02-09T03:37:24.211Z,-1.10
2018-02-09T03:39:52.492Z,-1.10
2018-02-09T03:42:20.755Z,-1.10
2018-02-09T03:44:49.060Z,-1.10
2018-02-09T03:47:16.576Z,-1.10
2018-02-09T03:49:44.101Z,-1.10
2018-02-09T03:52:11.609Z,-1.10
2018-02-09T03:54:39.922Z,-1.10
2018-02-09T03:57:07.444Z,-1.10
2018-02-09T03:59:35.736Z,-1.10
2018-02-09T04:02:03.278Z,-1.20
2018-02-09T04:04:31.572Z,-1.10
2018-02-09T04:06:59.110Z,-1.10
2018-02-09T04:09:27.408Z,-1.10
2018-02-09T04:11:54.933Z,-1.10
2018-02-09T04:14:22.428Z,-1.10
2018-02-09T04:16:49.990Z,-1.10
2018-02-09T04:19:17.488Z,-1.20
2018-02-09T04:21:44.998Z,-1.10
2018-02-09T04:24:12.526Z,-1.10
2018-02-09T04:26:40.034Z,-1.20
2018-02-09T04:29:07.558Z,-1.20
2018-02-09T04:31:35.847Z,-1.20
2018-02-09T04:34:04.152Z,-1.10
2018-02-09T04:36:31.659Z,-1.20
2018-02-09T04:38:59.189Z,-1.10
2018-02-09T04:41:26.692Z,-1.20
2018-02-09T04:43:54.986Z,-1.20
2018-02-09T04:46:22.498Z,-1.20
2018-02-09T04:48:50.010Z,-1.10
2018-02-09T04:51:17.551Z,-1.10
2018-02-09T04:53:45.826Z,-1.10
2018-02-09T04:56:14.130Z,-1.10
2018-02-09T04:58:41.660Z,-1.10
2018-02-09T05:01:10.587Z,-1.10
2018-02-09T05:03:38.258Z,-1.10
2018-02-09T05:06:07.339Z,-1.10
2018-02-09T05:08:36.207Z,-1.20
2018-02-09T05:11:04.861Z,-1.20
2018-02-09T05:13:33.054Z,-1.20
2018-02-09T05:16:00.628Z,-1.20
2018-02-09T05:18:28.154Z,-1.10
2018-02-09T05:20:55.698Z,-1.10
2018-02-09T05:23:23.227Z,-1.10
2018-02-09T05:25:50.737Z,-1.20
2018-02-09T05:28:18.275Z,-1.20
2018-02-09T05:30:45.797Z,-1.20
2018-02-09T05:33:13.330Z,-1.20
2018-02-09T05:35:41.691Z,-1.20
2018-02-09T05:38:09.285Z,-1.20
2018-02-09T05:40:36.814Z,-1.20
2018-02-09T05:43:05.104Z,-1.30
2018-02-09T05:45:33.383Z,-1.30
2018-02-09T05:48:01.671Z,-1.30
2018-02-09T05:50:29.264Z,-1.30
2018-02-09T05:52:56.781Z,-1.30
2018-02-09T05:55:24.306Z,-1.30
2018-02-09T05:57:52.670Z,-1.30
2018-02-09T06:00:20.225Z,-1.20
2018-02-09T06:02:47.746Z,-1.20
2018-02-09T06:05:15.249Z,-1.30
2018-02-09T06:07:42.784Z,-1.30
2018-02-09T06:10:10.284Z,-1.30
2018-02-09T06:12:37.822Z,-1.30
2018-02-09T06:15:05.334Z,-1.30
2018-02-09T06:17:32.866Z,-1.30
2018-02-09T06:20:00.369Z,-1.30
2018-02-09T06:22:27.920Z,-1.30
2018-02-09T06:24:55.433Z,-1.30
2018-02-09T06:27:22.937Z,-1.30
2018-02-09T06:29:50.466Z,-1.30
2018-02-09T06:32:18.742Z,-1.30
2018-02-09T06:34:47.048Z,-1.30
2018-02-09T06:37:14.551Z,-1.30
2018-02-09T06:39:42.080Z,-1.40
2018-02-09T06:42:09.603Z,-1.30
2018-02-09T06:44:37.896Z,-1.30
2018-02-09T06:47:05.421Z,-1.30
2018-02-09T06:49:32.937Z,-1.30
2018-02-09T06:52:00.447Z,-1.30
2018-02-09T06:54:28.734Z,-1.30
2018-02-09T06:56:57.016Z,-1.30
2018-02-09T06:59:25.278Z,-1.20
2018-02-09T07:01:53.569Z,-1.30
2018-02-09T07:04:21.841Z,-1.20
2018-02-09T07:06:50.130Z,-1.20
2018-02-09T07:09:17.650Z,-1.20
2018-02-09T07:11:45.263Z,-1.20
2018-02-09T07:14:12.769Z,-1.20
2018-02-09T07:16:40.296Z,-1.20
2018-02-09T07:19:07.818Z,-1.20
2018-02-09T07:21:35.334Z,-1.20
2018-02-09T07:24:02.884Z,-1.10
2018-02-09T07:26:30.520Z,-1.10
2018-02-09T07:28:58.101Z,-1.10
2018-02-09T07:31:25.578Z,-1.00
2018-02-09T07:33:53.111Z,-1.00
2018-02-09T07:36:20.622Z,-1.00
2018-02-09T07:38:48.888Z,-1.00
2018-02-09T07:41:17.195Z,-0.90
2018-02-09T07:43:44.716Z,-0.90
2018-02-09T07:46:12.256Z,-0.90
2018-02-09T07:48:39.777Z,-0.90
2018-02-09T07:51:07.301Z,-0.90
2018-02-09T07:53:35.592Z,-0.90
2018-02-09T07:56:03.117Z,-0.90
2018-02-09T07:58:30.631Z,-0.80
2018-02-09T08:00:58.175Z,-0.80
2018-02-09T08:03:25.695Z,-0.80
2018-02-09T08:05:53.206Z,-0.70
2018-02-09T08:08:20.732Z,-0.70
2018-02-09T08:10:49.016Z,-0.60
2018-02-09T08:13:17.311Z,-0.50
2018-02-09T08:15:44.815Z,-0.50
2018-02-09T08:18:12.333Z,-0.50
2018-02-09T08:20:39.851Z,-0.50
2018-02-09T08:23:08.149Z,-0.40
2018-02-09T08:25:37.171Z,-0.40
2018-02-09T08:28:04.683Z,-0.40
2018-02-09T08:30:32.207Z,-0.30
2018-02-09T08:32:59.720Z,-0.20
2018-02-09T08:35:27.249Z,-0.20
2018-02-09T08:37:54.748Z,-0.20
2018-02-09T08:40:22.273Z,-0.20
2018-02-09T08:42:49.781Z,-0.20
2018-02-09T08:45:17.306Z,-0.20
2018-02-09T08:47:45.578Z,-0.10
2018-02-09T08:50:13.886Z,-0.10
2018-02-09T08:52:41.394Z,-0.10
2018-02-09T08:55:08.906Z,-0.10
2018-02-09T08:57:36.429Z,0.00
2018-02-09T09:00:05.107Z,0.00
2018-02-09T09:02:32.658Z,0.00
2018-02-09T09:05:00.157Z,0.00
2018-02-09T09:07:27.678Z,0.10
2018-02-09T09:09:55.179Z,0.10
2018-02-09T09:12:22.715Z,0.10
2018-02-09T09:14:50.999Z,0.10
2018-02-09T09:17:18.496Z,0.10
2018-02-09T09:19:46.033Z,0.20
2018-02-09T09:22:13.537Z,0.20
2018-02-09T09:24:41.074Z,0.20
2018-02-09T09:27:08.581Z,0.20
2018-02-09T09:29:36.874Z,0.30
2018-02-09T09:32:04.396Z,0.30
2018-02-09T09:34:31.921Z,0.30
2018-02-09T09:36:59.430Z,0.40
2018-02-09T09:39:27.765Z,0.50
2018-02-09T09:41:55.262Z,0.40
2018-02-09T09:44:23.538Z,0.50
2018-02-09T09:46:51.821Z,0.40
2018-02-09T09:49:20.293Z,0.40
2018-02-09T09:51:48.576Z,0.50
2018-02-09T09:54:16.850Z,0.50
2018-02-09T09:56:45.148Z,0.50
2018-02-09T09:59:12.644Z,0.50
2018-02-09T10:01:40.171Z,0.50
2018-02-09T10:04:07.681Z,0.50
2018-02-09T10:06:35.191Z,0.50
2018-02-09T10:09:02.726Z,0.50
2018-02-09T10:11:31.015Z,0.50
2018-02-09T10:13:58.538Z,0.50
2018-02-09T10:16:26.047Z,0.60
2018-02-09T10:18:53.565Z,0.60
2018-02-09T10:21:21.852Z,0.60
2018-02-09T10:23:50.139Z,0.70
2018-02-09T10:26:18.463Z,0.70
2018-02-09T10:28:45.983Z,0.70
2018-02-09T10:31:13.500Z,0.80
2018-02-09T10:33:41.007Z,0.80
2018-02-09T10:36:08.517Z,0.90
2018-02-09T10:38:36.035Z,0.90
2018-02-09T10:41:03.571Z,0.90
2018-02-09T10:43:31.077Z,0.90
2018-02-09T10:45:58.596Z,0.90
2018-02-09T10:48:26.112Z,0.90
2018-02-09T10:50:53.623Z,1.00
2018-02-09T10:53:21.176Z,1.10
2018-02-09T10:55:49.456Z,1.20
2018-02-09T10:58:16.958Z,1.20
2018-02-09T11:00:50.135Z,1.20
2018-02-09T11:03:17.642Z,1.20
2018-02-09T11:05:45.913Z,1.30
2018-02-09T11:08:14.192Z,1.30
2018-02-09T11:10:47.479Z,1.30
2018-02-09T11:13:15.775Z,1.30
2018-02-09T11:15:43.286Z,1.30
2018-02-09T11:18:10.804Z,1.40
2018-02-09T11:20:38.305Z,1.40
2018-02-09T11:23:05.808Z,1.50
2018-02-09T11:25:33.330Z,1.50
2018-02-09T11:28:00.848Z,1.50
2018-02-09T11:30:28.364Z,1.50
2018-02-09T11:32:56.656Z,1.50
2018-02-09T11:35:24.159Z,1.40
2018-02-09T11:37:51.679Z,1.40
2018-02-09T11:40:19.201Z,1.40
2018-02-09T11:42:46.707Z,1.50
2018-02-09T11:45:14.256Z,1.50
2018-02-09T11:47:41.761Z,1.50
2018-02-09T11:50:09.253Z,1.50
2018-02-09T11:52:37.523Z,1.50
2018-02-09T11:55:05.780Z,1.50
2018-02-09T11:57:33.306Z,1.50
2018-02-09T12:00:00.800Z,1.60
2018-02-09T12:02:28.330Z,1.50
2018-02-09T12:04:55.837Z,1.50
2018-02-09T12:07:24.134Z,1.50
2018-02-09T12:09:51.656Z,1.50
2018-02-09T12:12:19.176Z,1.50
2018-02-09T12:14:46.710Z,1.40
2018-02-09T12:17:14.230Z,1.30
2018-02-09T12:19:41.750Z,1.30
2018-02-09T12:22:09.297Z,1.20
2018-02-09T12:24:36.818Z,1.20
2018-02-09T12:27:05.089Z,1.20
2018-02-09T12:29:33.391Z,1.30
2018-02-09T12:32:00.902Z,1.20
2018-02-09T12:34:29.189Z,1.30
2018-02-09T12:36:56.698Z,1.30
2018-02-09T12:39:24.217Z,1.30
2018-02-09T12:41:52.501Z,1.30
2018-02-09T12:44:20.788Z,1.30
2018-02-09T12:46:49.090Z,1.30
2018-02-09T12:49:16.608Z,1.30
2018-02-09T12:51:44.885Z,1.40
2018-02-09T12:54:13.148Z,1.40
2018-02-09T12:56:40.673Z,1.40
2018-02-09T12:59:08.173Z,1.30
2018-02-09T13:01:35.671Z,1.30
2018-02-09T13:04:03.191Z,1.30
2018-02-09T13:06:31.475Z,1.30
2018-02-09T13:08:59.752Z,1.30
2018-02-09T13:11:28.036Z,1.20
2018-02-09T13:13:56.309Z,1.20
2018-02-09T13:16:24.585Z,1.20
2018-02-09T13:18:52.856Z,1.30
2018-02-09T13:21:21.139Z,1.30
2018-02-09T13:24:01.355Z,1.30
2018-02-09T13:26:28.875Z,1.30
2018-02-09T13:28:59.031Z,1.30
2018-02-09T13:31:26.568Z,1.30
2018-02-09T13:33:54.077Z,1.30
2018-02-09T13:36:33.514Z,1.30
2018-02-09T13:39:01.802Z,1.30
2018-02-09T13:41:30.093Z,1.30
2018-02-09T13:43:57.588Z,1.30
2018-02-09T13:46:25.119Z,1.20
2018-02-09T13:48:52.635Z,1.10
2018-02-09T13:51:20.175Z,1.10
2018-02-09T13:53:48.534Z,1.00
2018-02-09T13:56:16.038Z,1.00
2018-02-09T13:58:44.339Z,1.10
2018-02-09T14:01:11.846Z,1.10
2018-02-09T14:03:39.378Z,1.10
2018-02-09T14:06:06.891Z,1.00
2018-02-09T14:08:35.186Z,1.00
2018-02-09T14:11:03.511Z,1.00
2018-02-09T14:13:31.041Z,1.00
2018-02-09T14:15:58.549Z,1.00
2018-02-09T14:18:26.065Z,1.00
2018-02-09T14:20:53.599Z,1.00
2018-02-09T14:23:21.902Z,1.00
2018-02-09T14:25:49.414Z,1.00
2018-02-09T14:28:17.699Z,1.00
2018-02-09T14:30:45.996Z,1.00
2018-02-09T14:33:13.493Z,0.90
2018-02-09T14:35:41.018Z,0.90
2018-02-09T14:38:08.535Z,0.90
2018-02-09T14:40:36.045Z,0.90
2018-02-09T14:43:03.566Z,0.80
2018-02-09T14:45:31.838Z,0.80
2018-02-09T14:48:00.140Z,0.80
2018-02-09T14:50:27.645Z,0.70
2018-02-09T14:52:55.179Z,0.70
2018-02-09T14:55:22.677Z,0.70
2018-02-09T14:57:50.971Z,0.60
2018-02-09T15:00:19.699Z,0.60
2018-02-09T15:02:47.229Z,0.60
2018-02-09T15:05:15.512Z,0.60
2018-02-09T15:07:43.012Z,0.50
2018-02-09T15:10:10.546Z,0.60
2018-02-09T15:12:38.064Z,0.50
2018-02-09T15:15:06.357Z,0.50
2018-02-09T15:17:34.638Z,0.50
2018-02-09T15:20:02.171Z,0.50
2018-02-09T15:22:29.680Z,0.50
2018-02-09T15:24:57.188Z,0.50
2018-02-09T15:27:24.707Z,0.50
2018-02-09T15:29:52.223Z,0.40
2018-02-09T15:32:20.519Z,0.40
2018-02-09T15:34:48.016Z,0.40
2018-02-09T15:37:15.548Z,0.40
2018-02-09T15:39:43.054Z,0.30
2018-02-09T15:42:10.578Z,0.30
2018-02-09T15:44:38.085Z,0.30
2018-02-09T15:47:06.359Z,0.20
2018-02-09T15:49:34.640Z,0.20
2018-02-09T15:52:02.980Z,0.10
2018-02-09T15:54:30.459Z,0.10
2018-02-09T15:56:57.972Z,0.10
2018-02-09T15:59:25.498Z,0.10
2018-02-09T16:01:53.766Z,0.20
2018-02-09T16:04:22.053Z,0.20
2018-02-09T16:06:50.326Z,0.10
2018-02-09T16:09:18.613Z,0.10
2018-02-09T16:11:46.111Z,0.10
2018-02-09T16:14:14.394Z,0.00
2018-02-09T16:16:41.892Z,0.00
2018-02-09T16:19:10.213Z,-0.10
2018-02-09T16:21:37.740Z,-0.10
2018-02-09T16:24:05.264Z,-0.10
2018-02-09T16:26:32.794Z,-0.10
2018-02-09T16:29:00.306Z,-0.10
2018-02-09T16:31:28.593Z,-0.10
2018-02-09T16:33:56.096Z,-0.10
2018-02-09T16:36:23.635Z,-0.10
2018-02-09T16:38:51.146Z,-0.10
2018-02-09T16:41:19.434Z,-0.20
2018-02-09T16:43:47.710Z,-0.20
2018-02-09T16:46:15.986Z,-0.20
2018-02-09T16:48:44.277Z,-0.20
2018-02-09T16:51:11.855Z,-0.20
2018-02-09T16:53:39.395Z,-0.20
2018-02-09T16:56:06.906Z,-0.20
2018-02-09T16:58:34.445Z,-0.30
2018-02-09T17:01:01.967Z,-0.30
2018-02-09T17:03:29.489Z,-0.30
2018-02-09T17:05:57.006Z,-0.30
2018-02-09T17:08:24.534Z,-0.40
2018-02-09T17:10:52.859Z,-0.40
2018-02-09T17:13:20.373Z,-0.40
2018-02-09T17:15:48.850Z,-0.40
2018-02-09T17:18:17.135Z,-0.40
2018-02-09T17:20:44.673Z,-0.40
2018-02-09T17:23:12.953Z,-0.40
2018-02-09T17:25:41.273Z,-0.40
2018-02-09T17:28:08.781Z,-0.50
2018-02-09T17:30:36.300Z,-0.50
2018-02-09T17:33:03.819Z,-0.40
2018-02-09T17:35:32.094Z,-0.30
2018-02-09T17:38:00.399Z,-0.30
2018-02-09T17:40:27.905Z,-0.30
2018-02-09T17:42:55.427Z,-0.30
2018-02-09T17:45:22.933Z,-0.40
2018-02-09T17:47:51.235Z,-0.40
2018-02-09T17:50:18.812Z,-0.50
2018-02-09T17:52:47.068Z,-0.50
2018-02-09T17:55:14.569Z,-0.50
2018-02-09T17:57:42.102Z,-0.50
2018-02-09T18:00:09.624Z,-0.50
2018-02-09T18:02:37.897Z,-0.50
2018-02-09T18:05:06.188Z,-0.50
2018-02-09T18:07:33.702Z,-0.50
2018-02-09T18:10:01.220Z,-0.60
2018-02-09T18:12:28.726Z,-0.60
2018-02-09T18:14:56.267Z,-0.60
2018-02-09T18:17:34.812Z,-0.60
2018-02-09T18:20:02.337Z,-0.60
2018-02-09T18:22:29.860Z,-0.60
2018-02-09T18:24:58.148Z,-0.50
2018-02-09T18:27:25.659Z,-0.50
2018-02-09T18:29:53.175Z,-0.50
2018-02-09T18:32:20.696Z,-0.60
2018-02-09T18:34:48.984Z,-0.60
2018-02-09T18:37:17.274Z,-0.70
2018-02-09T18:39:44.785Z,-0.70
2018-02-09T18:42:12.310Z,-0.70
2018-02-09T18:44:39.812Z,-0.60
2018-02-09T18:47:07.346Z,-0.60
2018-02-09T18:49:35.629Z,-0.60
2018-02-09T18:52:03.138Z,-0.60
2018-02-09T18:54:30.660Z,-0.60
2018-02-09T18:56:58.855Z,-0.60
2018-02-09T18:59:26.448Z,-0.60
2018-02-09T19:01:54.002Z,-0.60
2018-02-09T19:04:22.292Z,-0.60
2018-02-09T19:06:49.801Z,-0.70
2018-02-09T19:09:18.121Z,-0.70
2018-02-09T19:11:45.637Z,-0.70
2018-02-09T19:14:13.932Z,-0.70
2018-02-09T19:16:42.235Z,-0.70
2018-02-09T19:19:09.737Z,-0.70
2018-02-09T19:21:37.252Z,-0.70
2018-02-09T19:24:04.748Z,-0.70
2018-02-09T19:26:32.274Z,-0.60
2018-02-09T19:28:59.785Z,-0.60
2018-02-09T19:31:28.075Z,-0.60
2018-02-09T19:33:56.354Z,-0.60
2018-02-09T19:36:24.678Z,-0.60
2018-02-09T19:38:52.180Z,-0.70
2018-02-09T19:41:20.538Z,-0.70
2018-02-09T19:43:48.065Z,-0.70
2018-02-09T19:46:15.578Z,-0.70
2018-02-09T19:48:43.885Z,-0.70
2018-02-09T19:51:11.412Z,-0.70
2018-02-09T19:53:39.696Z,-0.70
2018-02-09T19:56:08.018Z,-0.70
2018-02-09T19:58:35.541Z,-0.70
2018-02-09T20:01:03.048Z,-0.70
2018-02-09T20:03:30.558Z,-0.70
2018-02-09T20:05:58.095Z,-0.70
2018-02-09T20:08:26.388Z,-0.80
2018-02-09T20:10:53.913Z,-0.80
2018-02-09T20:13:21.430Z,-0.80
2018-02-09T20:15:48.949Z,-0.80
2018-02-09T20:18:20.238Z,-0.80
2018-02-09T20:20:47.785Z,-0.80
2018-02-09T20:23:15.299Z,-0.80
2018-02-09T20:25:42.824Z,-0.80
2018-02-09T20:28:10.343Z,-0.90
2018-02-09T20:30:37.869Z,-0.80
2018-02-09T20:33:05.401Z,-0.80
2018-02-09T20:35:32.909Z,-0.90
2018-02-09T20:38:01.220Z,-0.80
2018-02-09T20:40:28.730Z,-0.80
2018-02-09T20:42:56.258Z,-0.80
2018-02-09T20:45:23.770Z,-0.80
2018-02-09T20:47:51.673Z,-0.80
2018-02-09T20:50:20.206Z,-0.80
2018-02-09T20:52:48.476Z,-0.80
2018-02-09T20:55:16.003Z,-0.80
2018-02-09T20:57:43.526Z,-0.80
2018-02-09T21:00:11.071Z,-0.80
2018-02-09T21:02:39.348Z,-0.80
2018-02-09T21:05:07.652Z,-0.80
2018-02-09T21:07:35.152Z,-0.80
2018-02-09T21:10:02.692Z,-0.80
2018-02-09T21:12:30.205Z,-0.80
2018-02-09T21:14:57.746Z,-0.80
2018-02-09T21:17:26.043Z,-0.90
2018-02-09T21:19:53.572Z,-0.90
2018-02-09T21:22:21.124Z,-0.90
2018-02-09T21:24:48.619Z,-0.90
2018-02-09T21:27:16.142Z,-0.90
2018-02-09T21:29:43.694Z,-0.90
2018-02-09T21:32:11.190Z,-0.90
2018-02-09T21:34:38.702Z,-0.90
2018-02-09T21:37:06.247Z,-0.90
2018-02-09T21:39:33.763Z,-0.90
2018-02-09T21:42:02.043Z,-0.90
2018-02-09T21:44:29.567Z,-0.90
2018-02-09T21:46:57.078Z,-0.90
2018-02-09T21:49:24.620Z,-0.90
2018-02-09T21:51:52.123Z,-0.80
2018-02-09T21:54:19.635Z,-0.90
2018-02-09T21:56:47.901Z,-0.90
2018-02-09T21:59:16.197Z,-0.80
2018-02-09T22:01:43.710Z,-0.90
2018-02-09T22:04:11.218Z,-0.90
2018-02-09T22:06:38.746Z,-0.90
2018-02-09T22:09:06.242Z,-0.90
2018-02-09T22:11:33.779Z,-0.90
2018-02-09T22:14:01.294Z,-0.80
2018-02-09T22:16:29.604Z,-0.80
2018-02-09T22:18:57.886Z,-0.80
2018-02-09T22:21:26.174Z,-0.80
2018-02-09T22:23:53.690Z,-0.80
2018-02-09T22:26:21.236Z,-0.80
2018-02-09T22:28:48.737Z,-0.80
2018-02-09T22:31:17.036Z,-0.80
2018-02-09T22:33:44.561Z,-0.80
2018-02-09T22:36:13.392Z,-0.80
2018-02-09T22:38:42.077Z,-0.80
2018-02-09T22:41:09.668Z,-0.80
2018-02-09T22:43:37.184Z,-0.80
2018-02-09T22:46:04.683Z,-0.80
2018-02-09T22:48:32.222Z,-0.70
2018-02-09T22:50:59.729Z,-0.70
2018-02-09T22:53:28.072Z,-0.70
2018-02-09T22:55:55.557Z,-0.80
2018-02-09T22:58:23.065Z,-0.80
2018-02-09T23:00:52.187Z,-0.80
2018-02-09T23:03:19.698Z,-0.80
2018-02-09T23:05:47.213Z,-0.80
2018-02-09T23:08:14.733Z,-0.80
2018-02-09T23:10:42.279Z,-0.80
2018-02-09T23:13:09.779Z,-0.80
2018-02-09T23:15:37.296Z,-0.80
2018-02-09T23:18:04.808Z,-0.80
2018-02-09T23:20:32.368Z,-0.80
2018-02-09T23:22:59.848Z,-0.90
2018-02-09T23:25:28.133Z,-0.80
2018-02-09T23:27:56.426Z,-0.80
2018-02-09T23:30:23.924Z,-0.90
2018-02-09T23:32:51.471Z,-0.80
2018-02-09T23:35:18.974Z,-0.80
2018-02-09T23:37:47.273Z,-0.80
2018-02-09T23:40:14.798Z,-0.90
2018-02-09T23:42:42.296Z,-0.80
2018-02-09T23:45:09.823Z,-0.80
2018-02-09T23:47:38.119Z,-0.70
2018-02-09T23:50:06.412Z,-0.60
2018-02-09T23:52:33.927Z,-0.60
2018-02-09T23:55:01.481Z,-0.60
2018-02-09T23:57:29.004Z,-0.60
2018-02-09T23:59:56.541Z,-0.60
